F/V Matmaco — FVNS — position and weather

sailwx.info

Track history (hours):
 
Tides and Currents Weather Stations Pressure Air Temp Water Temp Dewpoint Dewpoint Depression Visibility Wind Speed Wind Dir Waves Ship Positions

F/V Matmaco

Last reported at 2014-Nov-01 01:15 UTC. Time now 2014-Nov-27 20:49 UTC.
Position N 47°18' W 002°31'.
Warning: this ship's position is 26 days out of date.

Length 20 m.

Type: Other ship. MMSI: 228194000.

Date/timePositionNaut miles runAvg speedWind from/ knotsBaromVisibWave heightAir tempDewpointWater temp
2014-Nov-01 01:15N 47°18' W 002°31'39 5.8
2014-Oct-31 18:33N 46°47' W 003°07'7 0.8
2014-Oct-31 10:03N 46°44' W 003°16'1 2.4
2014-Oct-31 09:33N 46°43' W 003°17'3 2.7
2014-Oct-31 08:28N 46°46' W 003°20'3 3.6
2014-Oct-31 07:30N 46°45' W 003°15'3 3.6
2014-Oct-31 06:33N 46°45' W 003°10'3 3.5
2014-Oct-31 05:33N 46°43' W 003°05'1 0.6
2014-Oct-31 03:33N 46°43' W 003°03'2 1.6
2014-Oct-31 02:15N 46°43' W 003°07'3 3.2
2014-Oct-31 01:23N 46°45' W 003°10'1 1.5
2014-Oct-31 00:25N 46°46' W 003°11'4 4.0
2014-Oct-30 23:17N 46°44' W 003°05'3 3.9
2014-Oct-30 22:32N 46°44' W 003°01'1 1.2
2014-Oct-30 21:33N 46°44' W 003°02'4 3.6
2014-Oct-30 20:33N 46°45' W 003°07'3 0.1
2014-Oct-29 16:20N 46°45' W 003°12'5 1.4
2014-Oct-29 12:23N 46°40' W 003°17'4 3.5
2014-Oct-29 11:07N 46°45' W 003°17'3 2.0
2014-Oct-29 09:23N 46°41' W 003°17'0 0.4
2014-Oct-29 08:33N 46°41' W 003°18'0 0.2
2014-Oct-29 07:24N 46°41' W 003°18'0 0.1
2014-Oct-29 06:33N 46°41' W 003°18'1 1.3
2014-Oct-29 05:31N 46°41' W 003°16'2 1.8
2014-Oct-29 04:33N 46°42' W 003°13'3 3.4
2014-Oct-29 03:32N 46°38' W 003°13'4 3.6
2014-Oct-29 02:33N 46°35' W 003°12'4 3.6
2014-Oct-29 01:33N 46°31' W 003°11'3 3.5
2014-Oct-29 00:33N 46°29' W 003°15'1 0.8
2014-Oct-28 23:14N 46°30' W 003°14'2 3.0
2014-Oct-28 22:33N 46°28' W 003°13'2 0.8
2014-Oct-28 20:06N 46°28' W 003°15'18 1.1
2014-Oct-28 04:33N 46°45' W 003°11'4 0.3
2014-Oct-27 15:21N 46°45' W 003°18'2 2.2
2014-Oct-27 14:26N 46°45' W 003°21'3 3.4
2014-Oct-27 13:31N 46°43' W 003°18'0 0.0
2014-Oct-27 11:20N 46°43' W 003°18'1 0.5
2014-Oct-27 09:21N 46°43' W 003°17'3 3.3
2014-Oct-27 08:33N 46°44' W 003°20'3 2.7
2014-Oct-27 07:28N 46°43' W 003°17'3 3.6
2014-Oct-27 06:33N 46°42' W 003°12'4 3.6
2014-Oct-27 05:33N 46°42' W 003°07'2 2.0
2014-Oct-27 04:21N 46°41' W 003°03'  
2014-Oct-23 10:24N 46°29' W 003°02'  
Track history (hours):
 
Tides and Currents Weather Stations Pressure Air Temp Water Temp Dewpoint Dewpoint Depression Visibility Wind Speed Wind Dir Waves Ship Positions

F/V Matmaco

Last reported at 2014-Nov-01 01:15 UTC. Time now 2014-Nov-27 20:49 UTC.
Position N 47°18' W 002°31'.
Warning: this ship's position is 26 days out of date.

Length 20 m.

Type: Other ship. MMSI: 228194000.

Date/timePositionNaut miles runAvg speedWind from/ knotsBaromVisibWave heightAir tempDewpointWater temp
2014-Nov-01 01:15N 47°18' W 002°31'39 5.8
2014-Oct-31 18:33N 46°47' W 003°07'7 0.8
2014-Oct-31 10:03N 46°44' W 003°16'1 2.4
2014-Oct-31 09:33N 46°43' W 003°17'3 2.7
2014-Oct-31 08:28N 46°46' W 003°20'3 3.6
2014-Oct-31 07:30N 46°45' W 003°15'3 3.6
2014-Oct-31 06:33N 46°45' W 003°10'3 3.5
2014-Oct-31 05:33N 46°43' W 003°05'1 0.6
2014-Oct-31 03:33N 46°43' W 003°03'2 1.6
2014-Oct-31 02:15N 46°43' W 003°07'3 3.2
2014-Oct-31 01:23N 46°45' W 003°10'1 1.5
2014-Oct-31 00:25N 46°46' W 003°11'4 4.0
2014-Oct-30 23:17N 46°44' W 003°05'3 3.9
2014-Oct-30 22:32N 46°44' W 003°01'1 1.2
2014-Oct-30 21:33N 46°44' W 003°02'4 3.6
2014-Oct-30 20:33N 46°45' W 003°07'3 0.1
2014-Oct-29 16:20N 46°45' W 003°12'5 1.4
2014-Oct-29 12:23N 46°40' W 003°17'4 3.5
2014-Oct-29 11:07N 46°45' W 003°17'3 2.0
2014-Oct-29 09:23N 46°41' W 003°17'0 0.4
2014-Oct-29 08:33N 46°41' W 003°18'0 0.2
2014-Oct-29 07:24N 46°41' W 003°18'0 0.1
2014-Oct-29 06:33N 46°41' W 003°18'1 1.3
2014-Oct-29 05:31N 46°41' W 003°16'2 1.8
2014-Oct-29 04:33N 46°42' W 003°13'3 3.4
2014-Oct-29 03:32N 46°38' W 003°13'4 3.6
2014-Oct-29 02:33N 46°35' W 003°12'4 3.6
2014-Oct-29 01:33N 46°31' W 003°11'3 3.5
2014-Oct-29 00:33N 46°29' W 003°15'1 0.8
2014-Oct-28 23:14N 46°30' W 003°14'2 3.0
2014-Oct-28 22:33N 46°28' W 003°13'2 0.8
2014-Oct-28 20:06N 46°28' W 003°15'18 1.1
2014-Oct-28 04:33N 46°45' W 003°11'4 0.3
2014-Oct-27 15:21N 46°45' W 003°18'2 2.2
2014-Oct-27 14:26N 46°45' W 003°21'3 3.4
2014-Oct-27 13:31N 46°43' W 003°18'0 0.0
2014-Oct-27 11:20N 46°43' W 003°18'1 0.5
2014-Oct-27 09:21N 46°43' W 003°17'3 3.3
2014-Oct-27 08:33N 46°44' W 003°20'3 2.7
2014-Oct-27 07:28N 46°43' W 003°17'3 3.6
2014-Oct-27 06:33N 46°42' W 003°12'4 3.6
2014-Oct-27 05:33N 46°42' W 003°07'2 2.0
2014-Oct-27 04:21N 46°41' W 003°03'  
2014-Oct-23 10:24N 46°29' W 003°02'  

Dump ship's entire track history